createdAt,value
2019-03-12T00:00:37.248Z,3.20
2019-03-12T00:03:06.658Z,4.17
2019-03-12T00:05:36.459Z,3.00
2019-03-12T00:08:05.921Z,3.63
2019-03-12T00:10:35.730Z,3.60
2019-03-12T00:13:05.278Z,4.30
2019-03-12T00:15:34.682Z,2.97
2019-03-12T00:18:04.110Z,4.23
2019-03-12T00:20:33.597Z,3.50
2019-03-12T00:23:03.065Z,3.30
2019-03-12T00:25:32.482Z,3.67
2019-03-12T00:28:01.946Z,3.00
2019-03-12T00:30:31.441Z,3.90
2019-03-12T00:33:01.334Z,3.97
2019-03-12T00:35:31.205Z,6.73
2019-03-12T00:38:00.793Z,4.57
2019-03-12T00:40:30.321Z,3.73
2019-03-12T00:42:59.684Z,4.30
2019-03-12T00:45:29.137Z,3.50
2019-03-12T00:47:58.659Z,3.70
2019-03-12T00:50:28.102Z,4.00
2019-03-12T00:52:57.531Z,4.20
2019-03-12T00:55:26.989Z,2.80
2019-03-12T00:57:56.409Z,4.53
2019-03-12T01:00:25.859Z,4.50
2019-03-12T01:02:55.336Z,3.40
2019-03-12T01:05:24.811Z,4.20
2019-03-12T01:07:54.289Z,3.90
2019-03-12T01:10:23.787Z,3.80
2019-03-12T01:12:53.275Z,4.50
2019-03-12T01:15:23.194Z,4.03
2019-03-12T01:17:52.760Z,4.20
2019-03-12T01:20:22.446Z,4.37
2019-03-12T01:22:51.886Z,5.77
2019-03-12T01:25:21.664Z,4.43
2019-03-12T01:27:51.473Z,5.37
2019-03-12T01:30:21.286Z,6.50
2019-03-12T01:32:50.823Z,5.23
2019-03-12T01:35:20.250Z,5.53
2019-03-12T01:37:49.767Z,5.23
2019-03-12T01:40:19.618Z,5.83
2019-03-12T01:42:52.257Z,6.37
2019-03-12T01:45:20.590Z,6.00
2019-03-12T01:47:50.551Z,6.00
2019-03-12T01:50:20.044Z,5.03
2019-03-12T01:52:49.537Z,6.13
2019-03-12T01:55:19.658Z,5.30
2019-03-12T01:57:49.178Z,6.30
2019-03-12T02:00:19.112Z,5.50
2019-03-12T02:02:48.603Z,5.93
2019-03-12T02:05:18.065Z,5.70
2019-03-12T02:07:48.306Z,5.37
2019-03-12T02:10:17.761Z,5.40
2019-03-12T02:12:47.238Z,6.77
2019-03-12T02:15:16.746Z,5.70
2019-03-12T02:17:46.589Z,5.80
2019-03-12T02:20:17.133Z,5.80
2019-03-12T02:22:46.566Z,5.40
2019-03-12T02:25:17.430Z,6.33
2019-03-12T02:27:47.422Z,6.03
2019-03-12T02:30:17.703Z,6.33
2019-03-12T02:32:47.182Z,7.20
2019-03-12T02:35:16.957Z,7.13
2019-03-12T02:37:46.462Z,6.50
2019-03-12T02:40:16.468Z,6.60
2019-03-12T02:42:45.949Z,8.33
2019-03-12T02:45:16.082Z,6.97
2019-03-12T02:47:45.619Z,8.50
2019-03-12T02:50:15.091Z,7.67
2019-03-12T02:52:44.946Z,7.20
2019-03-12T02:55:15.579Z,8.30
2019-03-12T02:57:45.009Z,8.00
2019-03-12T03:00:18.534Z,8.47
2019-03-12T03:02:48.015Z,7.30
2019-03-12T03:05:17.890Z,8.00
2019-03-12T03:08:04.424Z,8.60
2019-03-12T03:10:34.355Z,7.90
2019-03-12T03:13:03.937Z,8.30
2019-03-12T03:15:40.720Z,9.23
2019-03-12T03:18:10.202Z,9.27
2019-03-12T03:20:39.707Z,9.30
2019-03-12T03:23:09.577Z,8.97
2019-03-12T03:25:39.450Z,9.30
2019-03-12T03:28:08.926Z,10.43
2019-03-12T03:30:38.404Z,10.17
2019-03-12T03:33:07.973Z,10.80
2019-03-12T03:35:37.877Z,11.00
2019-03-12T03:38:07.369Z,12.93
2019-03-12T03:40:37.245Z,12.37
2019-03-12T03:43:06.878Z,12.70
2019-03-12T03:45:36.311Z,13.83
2019-03-12T03:48:05.901Z,14.60
2019-03-12T03:50:35.388Z,16.30
2019-03-12T03:53:04.802Z,15.80
2019-03-12T03:55:34.346Z,17.67
2019-03-12T03:58:03.777Z,17.03
2019-03-12T04:00:33.639Z,16.83
2019-03-12T04:03:03.519Z,16.93
2019-03-12T04:05:32.942Z,19.20
2019-03-12T04:08:02.402Z,17.97
2019-03-12T04:10:31.859Z,18.70
2019-03-12T04:13:01.384Z,19.47
2019-03-12T04:15:30.809Z,19.23
2019-03-12T04:18:00.303Z,18.40
2019-03-12T04:20:29.901Z,19.70
2019-03-12T04:22:59.342Z,18.57
2019-03-12T04:25:29.193Z,20.50
2019-03-12T04:27:59.029Z,18.90
2019-03-12T04:30:28.506Z,20.50
2019-03-12T04:32:58.020Z,19.00
2019-03-12T04:35:27.501Z,19.10
2019-03-12T04:37:57.849Z,19.50
2019-03-12T04:40:27.295Z,20.37
2019-03-12T04:42:57.089Z,18.73
2019-03-12T04:45:26.681Z,19.93
2019-03-12T04:47:56.103Z,18.47
2019-03-12T04:50:25.537Z,19.23
2019-03-12T04:52:55.131Z,18.47
2019-03-12T04:55:24.950Z,17.83
2019-03-12T04:57:54.377Z,18.97
2019-03-12T05:00:24.230Z,19.00
2019-03-12T05:02:53.638Z,17.47
2019-03-12T05:05:23.245Z,15.23
2019-03-12T05:07:53.088Z,15.37
2019-03-12T05:10:22.605Z,15.90
2019-03-12T05:12:52.065Z,13.93
2019-03-12T05:15:21.804Z,14.40
2019-03-12T05:17:51.270Z,14.80
2019-03-12T05:20:20.617Z,12.97
2019-03-12T05:22:50.570Z,12.40
2019-03-12T05:25:20.016Z,13.40
2019-03-12T05:27:49.480Z,14.50
2019-03-12T05:30:19.229Z,14.10
2019-03-12T05:32:48.718Z,14.60
2019-03-12T05:35:18.122Z,14.80
2019-03-12T05:37:47.611Z,14.17
2019-03-12T05:40:17.116Z,14.80
2019-03-12T05:42:46.550Z,14.13
2019-03-12T05:45:16.009Z,16.70
2019-03-12T05:47:46.518Z,14.27
2019-03-12T05:50:16.702Z,16.43
2019-03-12T05:52:48.839Z,14.87
2019-03-12T05:55:17.649Z,13.73
2019-03-12T05:57:47.177Z,14.03
2019-03-12T06:00:17.224Z,13.27
2019-03-12T06:02:46.890Z,14.90
2019-03-12T06:05:16.301Z,14.73
2019-03-12T06:07:46.071Z,15.73
2019-03-12T06:10:15.885Z,13.47
2019-03-12T06:12:45.798Z,13.60
2019-03-12T06:15:15.404Z,13.07
2019-03-12T06:17:44.802Z,12.03
2019-03-12T06:20:14.310Z,13.60
2019-03-12T06:22:44.352Z,11.87
2019-03-12T06:25:14.036Z,12.60
2019-03-12T06:27:43.941Z,11.80
2019-03-12T06:30:13.534Z,10.97
2019-03-12T06:33:04.510Z,11.60
2019-03-12T06:35:41.228Z,11.40
2019-03-12T06:38:30.213Z,10.57
2019-03-12T06:41:08.126Z,10.97
2019-03-12T06:43:56.606Z,11.03
2019-03-12T06:46:57.617Z,9.73
2019-03-12T06:49:40.038Z,10.33
2019-03-12T06:52:34.714Z,10.73
2019-03-12T06:55:23.166Z,8.80
2019-03-12T06:58:24.913Z,8.73
2019-03-12T07:01:08.346Z,9.93
2019-03-12T07:03:48.583Z,8.33
2019-03-12T07:06:37.444Z,9.50
2019-03-12T07:09:33.269Z,8.50
2019-03-12T07:12:21.741Z,7.57
2019-03-12T07:15:15.906Z,8.17
2019-03-12T07:17:53.451Z,6.93
2019-03-12T07:20:41.878Z,7.00
2019-03-12T07:23:36.441Z,8.90
2019-03-12T07:26:13.961Z,7.53
2019-03-12T07:29:01.326Z,7.43
2019-03-12T07:31:40.234Z,8.03
2019-03-12T07:34:36.166Z,7.00
2019-03-12T07:37:23.987Z,7.17
2019-03-12T07:40:21.274Z,7.47
2019-03-12T07:43:09.967Z,6.60
2019-03-12T07:45:51.082Z,6.33
2019-03-12T07:48:31.595Z,6.57
2019-03-12T07:51:14.818Z,5.03
2019-03-12T07:54:09.028Z,5.07
2019-03-12T07:56:54.083Z,4.27
2019-03-12T07:59:41.808Z,5.10
2019-03-12T08:02:39.615Z,5.27
2019-03-12T08:05:15.646Z,4.00
2019-03-12T08:07:54.062Z,5.33
2019-03-12T08:10:28.957Z,4.33
2019-03-12T08:13:32.679Z,3.90
2019-03-12T08:16:29.928Z,4.37
2019-03-12T08:19:17.198Z,4.90
2019-03-12T08:22:05.570Z,4.70
2019-03-12T08:24:42.217Z,4.30
2019-03-12T08:27:27.757Z,3.70
2019-03-12T08:30:12.995Z,4.33
2019-03-12T08:33:13.698Z,4.43
2019-03-12T08:36:05.126Z,4.30
2019-03-12T08:38:56.274Z,4.67
2019-03-12T08:42:00.020Z,4.17
2019-03-12T08:44:51.406Z,4.80
2019-03-12T08:47:32.495Z,4.37
2019-03-12T08:50:13.942Z,3.90
2019-03-12T08:53:05.614Z,3.90
2019-03-12T08:55:43.467Z,3.90
2019-03-12T08:58:38.330Z,4.13
2019-03-12T09:01:25.115Z,3.43
2019-03-12T09:04:16.877Z,3.63
2019-03-12T09:07:08.449Z,4.27
2019-03-12T09:09:55.609Z,3.73
2019-03-12T09:12:32.894Z,4.87
2019-03-12T09:15:19.845Z,3.70
2019-03-12T09:18:11.435Z,3.27
2019-03-12T09:20:59.877Z,3.90
2019-03-12T09:23:51.410Z,5.77
2019-03-12T09:26:38.757Z,4.17
2019-03-12T09:29:45.365Z,4.50
2019-03-12T09:32:39.576Z,3.93
2019-03-12T09:35:28.446Z,4.13
2019-03-12T09:38:20.651Z,4.57
2019-03-12T09:41:18.474Z,3.90
2019-03-12T09:44:06.864Z,2.83
2019-03-12T09:46:44.885Z,3.07
2019-03-12T09:49:32.387Z,3.40
2019-03-12T09:52:20.802Z,3.23
2019-03-12T09:54:58.590Z,3.67
2019-03-12T09:57:45.754Z,3.10
2019-03-12T10:00:33.318Z,3.67
2019-03-12T10:03:21.778Z,2.80
2019-03-12T10:06:01.545Z,3.10
2019-03-12T10:08:49.987Z,2.53
2019-03-12T10:11:44.686Z,2.90
2019-03-12T10:14:31.978Z,3.73
2019-03-12T10:17:26.655Z,3.00
2019-03-12T10:20:18.214Z,3.63
2019-03-12T10:23:09.462Z,3.63
2019-03-12T10:25:58.250Z,3.10
2019-03-12T10:28:49.735Z,2.70
2019-03-12T10:31:29.720Z,2.50
2019-03-12T10:34:15.605Z,3.00
2019-03-12T10:37:12.270Z,2.47
2019-03-12T10:40:20.088Z,2.60
2019-03-12T10:42:57.461Z,3.10
2019-03-12T10:45:31.413Z,2.97
2019-03-12T10:48:01.194Z,2.47
2019-03-12T10:50:30.766Z,2.83
2019-03-12T10:53:00.267Z,3.43
2019-03-12T10:55:29.694Z,3.40
2019-03-12T10:57:59.113Z,3.27
2019-03-12T11:00:28.562Z,3.07
2019-03-12T11:02:58.017Z,3.17
2019-03-12T11:05:27.782Z,2.97
2019-03-12T11:07:57.689Z,2.70
2019-03-12T11:10:27.194Z,2.57
2019-03-12T11:12:56.638Z,2.70
2019-03-12T11:15:26.071Z,3.30
2019-03-12T11:17:55.685Z,3.07
2019-03-12T11:20:25.120Z,2.50
2019-03-12T11:22:55.006Z,3.00
2019-03-12T11:25:27.671Z,2.63
2019-03-12T11:27:55.566Z,2.90
2019-03-12T11:30:25.021Z,2.67
2019-03-12T11:32:54.856Z,2.23
2019-03-12T11:35:24.302Z,2.53
2019-03-12T11:37:54.070Z,2.50
2019-03-12T11:40:23.656Z,2.27
2019-03-12T11:42:53.155Z,4.30
2019-03-12T11:45:35.398Z,2.53
2019-03-12T11:47:54.557Z,1.70
2019-03-12T11:50:23.991Z,2.50
2019-03-12T11:52:57.514Z,2.30
2019-03-12T11:55:24.669Z,2.47
2019-03-12T11:57:54.309Z,2.57
2019-03-12T12:00:27.582Z,2.80
2019-03-12T12:03:00.434Z,2.20
2019-03-12T12:05:28.697Z,2.50
2019-03-12T12:07:58.170Z,2.43
2019-03-12T12:10:27.619Z,2.60
2019-03-12T12:12:57.092Z,3.23
2019-03-12T12:15:26.485Z,2.10
2019-03-12T12:17:56.022Z,2.53
2019-03-12T12:20:29.916Z,2.20
2019-03-12T12:22:56.672Z,2.40
2019-03-12T12:25:26.200Z,2.20
2019-03-12T12:27:56.002Z,2.00
2019-03-12T12:30:25.820Z,2.50
2019-03-12T12:32:55.595Z,2.00
2019-03-12T12:35:25.040Z,2.03
2019-03-12T12:37:55.956Z,2.20
2019-03-12T12:40:25.915Z,2.20
2019-03-12T12:42:56.202Z,2.57
2019-03-12T12:45:26.189Z,2.40
2019-03-12T12:47:56.084Z,2.50
2019-03-12T12:50:25.551Z,2.43
2019-03-12T12:52:55.084Z,2.73
2019-03-12T12:55:24.493Z,1.80
2019-03-12T12:57:53.975Z,2.00
2019-03-12T13:00:23.675Z,2.33
2019-03-12T13:02:53.582Z,2.13
2019-03-12T13:05:23.459Z,2.50
2019-03-12T13:07:52.898Z,2.40
2019-03-12T13:10:23.883Z,2.43
2019-03-12T13:12:53.427Z,2.93
2019-03-12T13:15:22.995Z,2.10
2019-03-12T13:17:52.430Z,2.43
2019-03-12T13:20:22.175Z,2.37
2019-03-12T13:22:51.895Z,2.10
2019-03-12T13:25:21.381Z,2.13
2019-03-12T13:27:50.816Z,2.60
2019-03-12T13:30:21.030Z,3.17
2019-03-12T13:32:50.502Z,2.70
2019-03-12T13:35:21.120Z,2.23
2019-03-12T13:37:51.094Z,2.13
2019-03-12T13:40:20.939Z,2.93
2019-03-12T13:42:50.625Z,2.30
2019-03-12T13:45:20.485Z,2.17
2019-03-12T13:47:49.989Z,2.60
2019-03-12T13:50:19.610Z,2.30
2019-03-12T13:52:49.771Z,1.87
2019-03-12T13:55:19.531Z,2.50
2019-03-12T13:57:49.372Z,2.77
2019-03-12T14:00:19.825Z,2.97
2019-03-12T14:02:49.395Z,2.30
2019-03-12T14:05:18.846Z,2.00
2019-03-12T14:07:48.698Z,2.37
2019-03-12T14:10:19.917Z,2.00
2019-03-12T14:12:49.522Z,2.57
2019-03-12T14:15:27.226Z,2.60
2019-03-12T14:17:56.907Z,2.50
2019-03-12T14:20:43.516Z,1.90
2019-03-12T14:23:15.284Z,2.43
2019-03-12T14:25:45.002Z,2.80
2019-03-12T14:28:14.460Z,4.23
2019-03-12T14:30:43.978Z,1.80
2019-03-12T14:33:13.598Z,1.63
2019-03-12T14:35:51.347Z,2.43
2019-03-12T14:38:14.908Z,1.80
2019-03-12T14:40:44.315Z,1.50
2019-03-12T14:43:14.074Z,1.90
2019-03-12T14:45:49.566Z,1.87
2019-03-12T14:49:00.951Z,1.87
2019-03-12T14:51:39.299Z,1.80
2019-03-12T14:54:09.101Z,1.90
2019-03-12T14:56:38.819Z,2.43
2019-03-12T14:59:08.308Z,1.80
2019-03-12T15:01:38.417Z,2.10
2019-03-12T15:04:07.905Z,2.00
2019-03-12T15:06:37.660Z,1.63
2019-03-12T15:09:10.147Z,1.80
2019-03-12T15:11:39.990Z,1.50
2019-03-12T15:14:09.438Z,1.23
2019-03-12T15:16:39.057Z,1.87
2019-03-12T15:19:09.870Z,1.60
2019-03-12T15:21:39.538Z,1.80
2019-03-12T15:24:09.022Z,2.10
2019-03-12T15:26:39.026Z,2.10
2019-03-12T15:29:08.499Z,1.50
2019-03-12T15:31:38.592Z,1.63
2019-03-12T15:34:08.449Z,2.30
2019-03-12T15:36:38.282Z,3.30
2019-03-12T15:39:09.918Z,2.10
2019-03-12T15:41:39.474Z,2.07
2019-03-12T15:44:08.944Z,2.17
2019-03-12T15:46:38.632Z,3.47
2019-03-12T15:49:08.457Z,1.90
2019-03-12T15:51:38.060Z,2.20
2019-03-12T15:54:07.530Z,2.60
2019-03-12T15:56:37.855Z,2.00
2019-03-12T15:59:07.736Z,2.03
2019-03-12T16:01:37.222Z,2.37
2019-03-12T16:04:07.046Z,2.37
2019-03-12T16:06:36.762Z,2.77
2019-03-12T16:09:08.263Z,2.70
2019-03-12T16:11:38.097Z,1.90
2019-03-12T16:14:08.343Z,2.13
2019-03-12T16:16:37.837Z,2.10
2019-03-12T16:19:07.289Z,2.00
2019-03-12T16:21:36.791Z,5.60
2019-03-12T16:24:06.655Z,2.20
2019-03-12T16:26:36.653Z,2.20
2019-03-12T16:29:06.122Z,1.93
2019-03-12T16:31:35.546Z,1.60
2019-03-12T16:34:05.213Z,1.77
2019-03-12T16:36:35.164Z,2.00
2019-03-12T16:39:05.886Z,1.60
2019-03-12T16:41:35.722Z,1.90
2019-03-12T16:44:05.339Z,1.60
2019-03-12T16:46:34.810Z,2.30
2019-03-12T16:49:04.661Z,1.57
2019-03-12T16:51:34.121Z,2.50
2019-03-12T16:54:05.403Z,1.63
2019-03-12T16:56:44.784Z,2.10
2019-03-12T16:59:08.561Z,2.50
2019-03-12T17:01:37.816Z,2.10
2019-03-12T17:04:07.708Z,1.50
2019-03-12T17:06:37.506Z,2.00
2019-03-12T17:09:08.135Z,1.80
2019-03-12T17:11:37.570Z,1.83
2019-03-12T17:14:07.092Z,1.80
2019-03-12T17:16:36.994Z,1.70
2019-03-12T17:19:06.491Z,2.10
2019-03-12T17:21:36.895Z,1.50
2019-03-12T17:24:07.010Z,2.20
2019-03-12T17:26:36.410Z,2.00
2019-03-12T17:29:05.926Z,2.33
2019-03-12T17:31:35.399Z,2.10
2019-03-12T17:34:04.888Z,1.50
2019-03-12T17:36:34.319Z,1.47
2019-03-12T17:39:04.646Z,1.50
2019-03-12T17:41:34.330Z,1.50
2019-03-12T17:44:03.761Z,1.50
2019-03-12T17:46:33.641Z,1.60
2019-03-12T17:49:03.351Z,1.90
2019-03-12T17:51:32.913Z,1.77
2019-03-12T17:54:03.032Z,1.90
2019-03-12T17:56:32.530Z,1.83
2019-03-12T17:59:01.952Z,1.50
2019-03-12T18:01:31.651Z,1.50
2019-03-12T18:04:01.104Z,1.57
2019-03-12T18:06:30.983Z,1.40
2019-03-12T18:09:00.432Z,1.80
2019-03-12T18:11:29.962Z,2.10
2019-03-12T18:13:59.427Z,3.10
2019-03-12T18:16:40.442Z,1.83
2019-03-12T18:19:00.122Z,1.70
2019-03-12T18:21:29.649Z,2.23
2019-03-12T18:23:59.051Z,1.60
2019-03-12T18:26:28.700Z,1.70
2019-03-12T18:28:59.388Z,1.03
2019-03-12T18:31:29.284Z,1.50
2019-03-12T18:33:58.722Z,1.53
2019-03-12T18:36:28.250Z,1.70
2019-03-12T18:38:57.783Z,1.30
2019-03-12T18:41:27.262Z,1.57
2019-03-12T18:43:56.721Z,1.47
2019-03-12T18:46:26.131Z,1.57
2019-03-12T18:48:55.545Z,1.53
2019-03-12T18:51:24.988Z,2.50
2019-03-12T18:53:54.632Z,1.50
2019-03-12T18:56:24.100Z,1.37
2019-03-12T18:58:53.577Z,0.90
2019-03-12T19:01:23.286Z,1.20
2019-03-12T19:03:52.723Z,1.60
2019-03-12T19:06:22.195Z,2.20
2019-03-12T19:08:52.093Z,1.40
2019-03-12T19:11:21.602Z,1.70
2019-03-12T19:13:51.077Z,1.90
2019-03-12T19:16:20.574Z,1.40
2019-03-12T19:18:50.027Z,1.30
2019-03-12T19:21:19.445Z,1.57
2019-03-12T19:23:48.867Z,1.77
2019-03-12T19:26:18.462Z,1.60
2019-03-12T19:28:47.910Z,2.33
2019-03-12T19:31:35.559Z,1.77
2019-03-12T19:34:17.819Z,1.90
2019-03-12T19:36:47.317Z,1.90
2019-03-12T19:39:19.070Z,2.00
2019-03-12T19:41:48.533Z,1.70
2019-03-12T19:44:18.118Z,2.07
2019-03-12T19:46:47.996Z,1.97
2019-03-12T19:49:17.426Z,2.00
2019-03-12T19:51:46.778Z,2.13
2019-03-12T19:54:16.563Z,2.00
2019-03-12T19:56:46.020Z,2.20
2019-03-12T19:59:15.457Z,2.30
2019-03-12T20:01:46.242Z,1.93
2019-03-12T20:04:15.824Z,1.80
2019-03-12T20:06:45.311Z,1.77
2019-03-12T20:09:35.673Z,2.27
2019-03-12T20:12:43.054Z,1.90
2019-03-12T20:15:58.229Z,1.70
2019-03-12T20:19:04.752Z,2.17
2019-03-12T20:22:13.910Z,2.20
2019-03-12T20:25:35.329Z,1.60
2019-03-12T20:28:39.213Z,2.10
2019-03-12T20:31:45.019Z,1.90
2019-03-12T20:34:44.908Z,2.30
2019-03-12T20:37:51.761Z,2.40
2019-03-12T20:41:14.196Z,2.43
2019-03-12T20:44:19.560Z,2.10
2019-03-12T20:47:35.970Z,2.07
2019-03-12T20:51:13.123Z,1.70
2019-03-12T20:54:19.040Z,2.00
2019-03-12T20:57:44.533Z,2.47
2019-03-12T21:01:10.206Z,2.30
2019-03-12T21:04:11.872Z,2.57
2019-03-12T21:07:35.832Z,2.53
2019-03-12T21:11:10.615Z,2.70
2019-03-12T21:14:15.731Z,3.03
2019-03-12T21:17:36.649Z,2.60
2019-03-12T21:20:58.304Z,1.80
2019-03-12T21:24:01.273Z,1.43
2019-03-12T21:27:20.388Z,1.20
2019-03-12T21:29:52.358Z,1.07
2019-03-12T21:32:21.937Z,0.80
2019-03-12T21:34:51.809Z,1.40
2019-03-12T21:37:21.665Z,1.30
2019-03-12T21:39:55.730Z,1.93
2019-03-12T21:42:25.116Z,1.37
2019-03-12T21:44:54.028Z,1.37
2019-03-12T21:47:23.527Z,1.80
2019-03-12T21:49:53.037Z,2.00
2019-03-12T21:52:22.533Z,2.07
2019-03-12T21:54:51.953Z,2.00
2019-03-12T21:57:21.812Z,2.00
2019-03-12T21:59:51.288Z,2.50
2019-03-12T22:02:21.098Z,2.47
2019-03-12T22:04:50.493Z,2.03
2019-03-12T22:07:19.964Z,2.07
2019-03-12T22:09:50.120Z,2.53
2019-03-12T22:12:19.756Z,2.20
2019-03-12T22:14:49.195Z,2.70
2019-03-12T22:17:18.627Z,2.53
2019-03-12T22:19:48.438Z,2.00
2019-03-12T22:22:29.081Z,2.47
2019-03-12T22:24:58.597Z,2.10
2019-03-12T22:27:28.306Z,2.93
2019-03-12T22:29:57.985Z,2.07
2019-03-12T22:32:28.067Z,2.40
2019-03-12T22:34:58.350Z,2.30
2019-03-12T22:37:27.753Z,2.27
2019-03-12T22:39:57.285Z,2.97
2019-03-12T22:42:26.801Z,3.00
2019-03-12T22:44:56.686Z,3.03
2019-03-12T22:47:26.117Z,2.50
2019-03-12T22:49:55.489Z,2.77
2019-03-12T22:52:24.906Z,2.97
2019-03-12T22:54:54.305Z,2.80
2019-03-12T22:57:23.720Z,3.57
2019-03-12T22:59:53.234Z,3.53
2019-03-12T23:02:22.721Z,2.90
2019-03-12T23:04:52.114Z,3.03
2019-03-12T23:07:21.958Z,3.47
2019-03-12T23:09:52.165Z,3.23
2019-03-12T23:12:21.665Z,2.63
2019-03-12T23:14:51.852Z,3.30
2019-03-12T23:17:21.266Z,3.10
2019-03-12T23:19:50.727Z,3.27
2019-03-12T23:22:21.014Z,3.30
2019-03-12T23:24:50.410Z,3.67
2019-03-12T23:27:19.772Z,4.03
2019-03-12T23:29:49.665Z,4.00
2019-03-12T23:32:19.863Z,3.50
2019-03-12T23:34:49.412Z,3.50
2019-03-12T23:37:18.901Z,3.77
2019-03-12T23:39:48.920Z,3.53
2019-03-12T23:42:18.353Z,4.13
2019-03-12T23:44:47.769Z,4.00
2019-03-12T23:47:17.296Z,4.30
2019-03-12T23:49:46.760Z,5.27
2019-03-12T23:52:16.337Z,5.40
2019-03-12T23:54:45.732Z,5.37
2019-03-12T23:57:15.129Z,5.77
2019-03-12T23:59:45.020Z,6.07
